Time;durP1;ratioP1;P1;durP2;ratioP2;P2;SDS_P1;SDS_P2;PMS_P1;PMS_P2;Temp;Humidity;BMP_temperature;BMP_pressure;BME280_temperature;BME280_humidity;BME280_pressure;Samples;Min_cycle;Max_cycle;Signal;HPM_P1;HPM_P2
2021/08/08 00:01:09;;;;;;;5.70;3.65;;;16.70;99.90;;;;;;5040881;28;20202;-73
2021/08/08 00:03:36;;;;;;;10.83;6.60;;;16.60;99.90;;;;;;5045848;28;20205;-72
2021/08/08 00:06:05;;;;;;;6.40;3.90;;;16.60;99.90;;;;;;5043235;28;20557;-72
2021/08/08 00:08:33;;;;;;;8.50;4.15;;;16.50;99.90;;;;;;5033479;28;20222;-70
2021/08/08 00:11:01;;;;;;;8.52;7.45;;;16.50;99.90;;;;;;5045960;28;20261;-74
2021/08/08 00:13:28;;;;;;;5.75;4.60;;;16.50;99.90;;;;;;5041605;28;20398;-72
2021/08/08 00:15:56;;;;;;;6.80;4.85;;;16.40;99.90;;;;;;5049310;28;20208;-72
2021/08/08 00:18:23;;;;;;;4.75;4.35;;;16.40;99.90;;;;;;5043563;28;20221;-71
2021/08/08 00:20:50;;;;;;;6.47;5.20;;;16.50;99.90;;;;;;5028201;28;20625;-72
2021/08/08 00:23:18;;;;;;;6.90;4.88;;;16.50;99.90;;;;;;5032975;28;20250;-70
2021/08/08 00:25:46;;;;;;;6.35;5.75;;;16.40;99.90;;;;;;5033996;28;20201;-72
2021/08/08 00:28:13;;;;;;;4.57;4.18;;;16.30;99.90;;;;;;5036005;28;20691;-73
2021/08/08 00:30:40;;;;;;;4.72;4.32;;;16.30;99.90;;;;;;5032281;28;20225;-71
2021/08/08 00:33:07;;;;;;;4.95;4.30;;;16.30;99.90;;;;;;5038908;28;20285;-72
2021/08/08 00:35:34;;;;;;;7.43;5.28;;;16.30;99.90;;;;;;5046014;28;20645;-74
2021/08/08 00:38:02;;;;;;;4.22;3.85;;;16.30;99.90;;;;;;5035322;28;20235;-72
2021/08/08 00:40:31;;;;;;;5.07;4.45;;;16.40;99.90;;;;;;5040212;28;20219;-72
2021/08/08 00:42:58;;;;;;;4.72;4.32;;;16.30;99.90;;;;;;5042506;28;20208;-73
2021/08/08 00:45:25;;;;;;;5.85;4.68;;;16.30;99.90;;;;;;5027173;28;20201;-70
2021/08/08 00:47:52;;;;;;;5.38;4.18;;;16.30;99.90;;;;;;5040621;28;20298;-74
2021/08/08 00:50:20;;;;;;;5.28;4.78;;;16.30;99.90;;;;;;5039315;28;20197;-73
2021/08/08 00:52:47;;;;;;;6.75;4.63;;;16.20;99.90;;;;;;5033006;28;20214;-73
2021/08/08 00:55:14;;;;;;;4.85;3.50;;;16.20;99.90;;;;;;5042129;28;20206;-71
2021/08/08 00:57:43;;;;;;;4.57;4.00;;;16.20;99.90;;;;;;5037156;28;20224;-75
2021/08/08 01:00:12;;;;;;;5.20;4.70;;;16.10;99.90;;;;;;5033130;28;20220;-72
2021/08/08 01:02:57;;;;;;;5.40;4.20;;;16.10;99.90;;;;;;5035167;28;20213;-73
2021/08/08 01:05:30;;;;;;;7.40;4.15;;;16.00;99.90;;;;;;5030385;28;20205;-71
2021/08/08 01:08:02;;;;;;;5.18;4.68;;;16.00;99.90;;;;;;5034240;28;20311;-72
2021/08/08 01:10:29;;;;;;;5.05;3.85;;;15.90;99.90;;;;;;5039540;28;20278;-74
2021/08/08 01:13:27;;;;;;;4.47;3.95;;;15.90;99.90;;;;;;5037362;28;20189;-74
2021/08/08 01:16:04;;;;;;;;;;;;;;;;;;;;;
2021/08/08 01:18:22;;;;;;;4.70;3.90;;;15.70;99.90;;;;;;5044192;28;20216;-71
2021/08/08 01:20:51;;;;;;;4.43;3.92;;;15.70;99.90;;;;;;5027676;28;20200;-71
2021/08/08 01:23:24;;;;;;;4.93;4.03;;;15.60;99.90;;;;;;5033128;28;20215;-73
2021/08/08 01:25:53;;;;;;;4.57;4.18;;;15.60;99.90;;;;;;5032700;28;20544;-72
2021/08/08 01:28:21;;;;;;;7.07;4.43;;;15.60;99.90;;;;;;5037947;28;20219;-71
2021/08/08 01:30:49;;;;;;;5.65;5.07;;;15.60;99.90;;;;;;5044442;28;20211;-74
2021/08/08 01:33:16;;;;;;;6.57;5.25;;;15.50;99.90;;;;;;5034418;28;20200;-74
2021/08/08 01:35:44;;;;;;;5.60;4.40;;;15.50;99.90;;;;;;5040942;28;20550;-72
2021/08/08 01:38:11;;;;;;;4.93;3.90;;;15.50;99.90;;;;;;5043248;28;20220;-73
2021/08/08 01:40:45;;;;;;;5.25;3.78;;;15.50;99.90;;;;;;5032651;28;20228;-71
2021/08/08 01:43:21;;;;;;;6.10;3.95;;;15.50;99.90;;;;;;5034597;28;20200;-74
2021/08/08 01:45:49;;;;;;;4.82;3.92;;;15.50;99.90;;;;;;5026998;28;20216;-74
2021/08/08 01:48:19;;;;;;;4.55;3.47;;;15.50;99.90;;;;;;5031808;28;20689;-73
2021/08/08 01:50:47;;;;;;;5.43;3.83;;;15.50;99.90;;;;;;5034104;28;20200;-72
2021/08/08 01:53:15;;;;;;;5.18;3.92;;;15.50;99.90;;;;;;5034134;28;20204;-71
2021/08/08 01:55:42;;;;;;;7.55;4.10;;;15.50;99.90;;;;;;5035642;28;20208;-71
2021/08/08 01:58:10;;;;;;;7.40;3.95;;;15.40;99.90;;;;;;5034353;28;20220;-70
2021/08/08 02:00:38;;;;;;;8.38;4.25;;;15.40;99.90;;;;;;5039948;28;20684;-73
2021/08/08 02:03:06;;;;;;;4.35;3.10;;;15.50;99.90;;;;;;5035594;28;20224;-75
2021/08/08 02:05:33;;;;;;;3.58;3.00;;;15.50;99.90;;;;;;5042401;28;20196;-74
2021/08/08 02:08:01;;;;;;;13.45;9.80;;;15.50;99.90;;;;;;5033509;28;20235;-72
2021/08/08 02:10:28;;;;;;;5.38;4.55;;;15.50;99.90;;;;;;5039732;28;20211;-72
2021/08/08 02:12:55;;;;;;;3.90;3.60;;;15.50;99.90;;;;;;5040827;28;20204;-71
2021/08/08 02:15:22;;;;;;;6.88;3.60;;;15.60;99.90;;;;;;5032750;28;20222;-71
2021/08/08 02:17:59;;;;;;;3.40;3.10;;;15.70;99.90;;;;;;5043209;28;20248;-73
2021/08/08 02:20:26;;;;;;;4.70;3.90;;;15.70;99.90;;;;;;5029259;28;20219;-72
2021/08/08 02:22:53;;;;;;;4.22;3.55;;;15.80;99.90;;;;;;5030104;28;20204;-74
2021/08/08 02:25:20;;;;;;;4.38;3.38;;;15.80;99.90;;;;;;5042761;28;20200;-70
2021/08/08 02:27:47;;;;;;;4.25;3.05;;;15.90;99.90;;;;;;5028385;28;20228;-71
2021/08/08 02:30:15;;;;;;;9.02;4.50;;;15.90;99.90;;;;;;5043789;28;20562;-72
2021/08/08 02:32:42;;;;;;;3.78;3.33;;;15.90;99.90;;;;;;5040984;28;20207;-72
2021/08/08 02:35:12;;;;;;;3.63;3.30;;;16.00;99.90;;;;;;5034962;28;20204;-75
2021/08/08 02:37:40;;;;;;;3.33;2.53;;;16.00;99.90;;;;;;5042154;28;20227;-74
2021/08/08 02:40:08;;;;;;;4.30;3.90;;;16.00;99.90;;;;;;5031552;28;20243;-70
2021/08/08 02:42:36;;;;;;;4.18;3.63;;;16.10;99.90;;;;;;5037745;28;20652;-72
2021/08/08 02:45:03;;;;;;;4.97;2.80;;;16.20;99.90;;;;;;5036811;28;20219;-71
2021/08/08 02:47:30;;;;;;;6.32;3.67;;;16.30;99.90;;;;;;5029027;28;20225;-71
2021/08/08 02:49:57;;;;;;;5.70;4.00;;;16.30;99.90;;;;;;5025636;28;20208;-72
2021/08/08 02:52:27;;;;;;;5.32;3.88;;;16.30;99.90;;;;;;5031532;28;20239;-72
2021/08/08 02:54:54;;;;;;;3.25;2.95;;;16.30;99.90;;;;;;5029428;28;20209;-73
2021/08/08 02:57:21;;;;;;;3.60;3.20;;;16.30;99.90;;;;;;5032158;28;20196;-72
2021/08/08 02:59:48;;;;;;;9.68;5.45;;;16.30;99.90;;;;;;5038066;28;20556;-73
2021/08/08 03:02:15;;;;;;;4.60;3.63;;;16.30;99.90;;;;;;5037337;28;20199;-71
2021/08/08 03:04:42;;;;;;;4.60;3.88;;;16.30;99.90;;;;;;5036974;28;20588;-75
2021/08/08 03:07:10;;;;;;;4.30;3.30;;;16.30;99.90;;;;;;5038013;28;20212;-70
2021/08/08 03:09:38;;;;;;;7.18;4.15;;;16.30;99.90;;;;;;5039323;28;20211;-72
2021/08/08 03:12:06;;;;;;;4.95;2.92;;;16.30;99.90;;;;;;5039120;28;20658;-73
2021/08/08 03:14:34;;;;;;;11.32;4.68;;;16.30;99.90;;;;;;5037945;28;20210;-73
2021/08/08 03:17:01;;;;;;;3.88;3.00;;;16.40;99.90;;;;;;5033825;28;20208;-72
2021/08/08 03:19:28;;;;;;;11.02;8.25;;;16.40;99.90;;;;;;5050746;28;20323;-71
2021/08/08 03:21:55;;;;;;;3.20;2.90;;;16.40;99.90;;;;;;5043943;28;20204;-72
2021/08/08 03:24:24;;;;;;;3.78;3.38;;;16.40;99.90;;;;;;5030698;28;20216;-70
2021/08/08 03:26:53;;;;;;;4.68;2.78;;;16.50;99.90;;;;;;5037390;28;20203;-73
2021/08/08 03:29:20;;;;;;;4.50;3.67;;;16.50;99.90;;;;;;5048984;28;20224;-69
2021/08/08 03:31:47;;;;;;;3.70;3.13;;;16.40;99.90;;;;;;5037657;28;20211;-69
2021/08/08 03:34:14;;;;;;;4.13;3.10;;;16.40;99.90;;;;;;5037297;28;20214;-71
2021/08/08 03:36:42;;;;;;;7.55;3.20;;;16.40;99.90;;;;;;5042467;28;20214;-69
2021/08/08 03:39:09;;;;;;;4.15;3.72;;;16.50;99.90;;;;;;5040772;28;20230;-69
2021/08/08 03:41:36;;;;;;;5.03;3.15;;;16.50;99.90;;;;;;5048977;28;20206;-73
2021/08/08 03:44:05;;;;;;;8.13;4.25;;;16.50;99.90;;;;;;5043497;28;20222;-73
2021/08/08 03:46:32;;;;;;;5.20;3.65;;;16.60;99.90;;;;;;5041437;28;20605;-71
2021/08/08 03:48:59;;;;;;;4.45;4.03;;;16.70;99.90;;;;;;5029329;28;20729;-72
2021/08/08 03:51:26;;;;;;;6.80;3.00;;;16.70;99.90;;;;;;5046127;28;20546;-71
2021/08/08 03:53:53;;;;;;;4.15;3.13;;;16.70;99.90;;;;;;5038579;28;20206;-69
2021/08/08 03:56:21;;;;;;;8.05;3.78;;;16.80;99.90;;;;;;5046123;28;20297;-74
2021/08/08 03:58:48;;;;;;;3.33;3.03;;;16.70;99.90;;;;;;5036477;28;20223;-73
2021/08/08 04:01:18;;;;;;;4.20;3.65;;;16.70;99.90;;;;;;5040132;28;20242;-74
2021/08/08 04:03:45;;;;;;;4.53;3.03;;;16.70;99.90;;;;;;5029486;28;20200;-72
2021/08/08 04:06:12;;;;;;;6.47;3.97;;;16.70;99.90;;;;;;5033666;28;20198;-74
2021/08/08 04:08:40;;;;;;;8.52;4.25;;;16.70;99.90;;;;;;5041270;28;20225;-74
2021/08/08 04:11:11;;;;;;;5.00;3.75;;;16.50;99.90;;;;;;5042916;28;20217;-72
2021/08/08 04:13:39;;;;;;;4.70;4.22;;;16.50;99.90;;;;;;5034545;28;20281;-73
2021/08/08 04:16:06;;;;;;;5.80;3.70;;;16.50;99.90;;;;;;5040168;28;20196;-75
2021/08/08 04:18:35;;;;;;;6.40;3.13;;;16.40;99.90;;;;;;5039865;28;20228;-71
2021/08/08 04:21:02;;;;;;;5.60;4.30;;;16.50;99.90;;;;;;5041473;28;20225;-70
2021/08/08 04:23:29;;;;;;;7.00;5.47;;;16.50;99.90;;;;;;5042714;28;20213;-72
2021/08/08 04:25:56;;;;;;;6.80;4.45;;;16.40;99.90;;;;;;5035411;28;20204;-70
2021/08/08 04:28:23;;;;;;;5.28;4.70;;;16.50;99.90;;;;;;5041717;28;20711;-71
2021/08/08 04:30:50;;;;;;;5.70;4.88;;;16.50;99.90;;;;;;5041118;28;20221;-70
2021/08/08 04:33:18;;;;;;;5.50;5.00;;;16.50;99.90;;;;;;5033233;28;20226;-73
2021/08/08 04:35:46;;;;;;;7.13;5.80;;;16.40;99.90;;;;;;5033094;28;20209;-69
2021/08/08 04:38:13;;;;;;;9.07;7.05;;;16.40;99.90;;;;;;5033022;28;20227;-70
2021/08/08 04:40:40;;;;;;;6.78;5.82;;;16.40;99.90;;;;;;5033613;28;20225;-71
2021/08/08 04:43:07;;;;;;;6.88;6.20;;;16.40;99.90;;;;;;5036205;28;20219;-70
2021/08/08 04:45:35;;;;;;;10.50;7.78;;;16.30;99.90;;;;;;5040848;28;20215;-71
2021/08/08 04:48:02;;;;;;;5.15;4.75;;;16.30;99.90;;;;;;5042140;28;20232;-69
2021/08/08 04:50:29;;;;;;;6.38;5.78;;;16.30;99.90;;;;;;5042259;28;20281;-71
2021/08/08 04:52:58;;;;;;;7.47;6.65;;;16.30;99.90;;;;;;5040647;28;20200;-71
2021/08/08 04:55:27;;;;;;;7.07;6.38;;;16.30;99.90;;;;;;5042868;28;20213;-71
2021/08/08 04:57:54;;;;;;;8.85;7.38;;;16.30;99.90;;;;;;5033015;28;20235;-75
2021/08/08 05:00:21;;;;;;;7.63;6.75;;;16.30;99.90;;;;;;5034360;28;20231;-71
2021/08/08 05:02:49;;;;;;;7.40;6.68;;;16.30;99.90;;;;;;5032752;28;20655;-73
2021/08/08 05:05:17;;;;;;;7.70;7.00;;;16.40;99.90;;;;;;5035474;28;20680;-69
2021/08/08 05:07:45;;;;;;;6.90;6.30;;;16.40;99.90;;;;;;5046861;28;20317;-70
2021/08/08 05:10:15;;;;;;;7.45;6.85;;;16.40;99.90;;;;;;5034122;28;20203;-70
2021/08/08 05:12:42;;;;;;;8.27;7.13;;;16.40;99.90;;;;;;5033611;28;20267;-72
2021/08/08 05:15:11;;;;;;;8.77;7.32;;;16.50;99.90;;;;;;5033505;28;20361;-73
2021/08/08 05:17:38;;;;;;;10.30;8.68;;;16.40;99.90;;;;;;5035347;28;20229;-72
2021/08/08 05:20:07;;;;;;;12.43;10.48;;;16.50;99.90;;;;;;5038284;28;20251;-73
2021/08/08 05:22:35;;;;;;;11.32;10.18;;;16.50;99.90;;;;;;5027390;28;20208;-73
2021/08/08 05:25:03;;;;;;;7.97;7.28;;;16.50;99.90;;;;;;5030579;28;20228;-73
2021/08/08 05:27:34;;;;;;;15.50;10.30;;;16.60;99.90;;;;;;5032484;28;20222;-72
2021/08/08 05:30:01;;;;;;;7.75;7.05;;;16.60;99.90;;;;;;5037013;28;20213;-69
2021/08/08 05:32:28;;;;;;;13.60;8.77;;;16.60;99.90;;;;;;5035604;28;20202;-71
2021/08/08 05:34:56;;;;;;;9.35;8.20;;;16.60;99.90;;;;;;5031308;28;20202;-70
2021/08/08 05:37:23;;;;;;;11.02;7.53;;;16.60;99.90;;;;;;5028814;28;20228;-72
2021/08/08 05:39:50;;;;;;;8.60;7.70;;;16.60;99.90;;;;;;5039978;28;20214;-71
2021/08/08 05:42:18;;;;;;;9.15;8.13;;;16.70;99.90;;;;;;5046372;28;20210;-70
2021/08/08 05:44:47;;;;;;;8.05;7.32;;;16.70;99.90;;;;;;5042275;28;20202;-72
2021/08/08 05:47:14;;;;;;;8.90;8.10;;;16.70;99.90;;;;;;5037990;28;20546;-70
2021/08/08 05:49:41;;;;;;;10.15;9.05;;;16.70;99.90;;;;;;5046843;28;20738;-70
2021/08/08 05:52:08;;;;;;;9.80;8.80;;;16.70;99.90;;;;;;5039036;28;20198;-72
2021/08/08 05:54:36;;;;;;;10.18;8.93;;;16.70;99.90;;;;;;5040812;28;20526;-73
2021/08/08 05:57:03;;;;;;;10.43;8.63;;;16.60;99.90;;;;;;5023225;28;20217;-69
2021/08/08 05:59:30;;;;;;;10.00;9.10;;;16.70;99.90;;;;;;5041630;28;20570;-73
2021/08/08 06:01:59;;;;;;;9.40;8.50;;;16.70;99.90;;;;;;5040259;28;20220;-71
2021/08/08 06:04:26;;;;;;;9.30;8.55;;;16.70;99.90;;;;;;5022500;28;20224;-69
2021/08/08 06:06:53;;;;;;;10.95;9.95;;;16.60;99.90;;;;;;5038334;28;20210;-72
2021/08/08 06:09:21;;;;;;;12.48;9.55;;;16.70;99.90;;;;;;5035244;28;20689;-70
2021/08/08 06:11:48;;;;;;;11.65;8.98;;;16.80;99.90;;;;;;5043625;28;20210;-71
2021/08/08 06:14:15;;;;;;;9.50;8.52;;;16.70;99.90;;;;;;5043270;28;20200;-70
2021/08/08 06:16:42;;;;;;;10.80;8.40;;;16.70;99.90;;;;;;5032246;28;20688;-72
2021/08/08 06:19:11;;;;;;;10.15;9.20;;;16.70;99.90;;;;;;5040722;28;20232;-73
2021/08/08 06:21:38;;;;;;;15.07;13.63;;;16.70;99.90;;;;;;5024991;28;20225;-69
2021/08/08 06:24:06;;;;;;;14.65;9.52;;;16.70;99.90;;;;;;5046455;28;20216;-70
2021/08/08 06:26:35;;;;;;;9.63;8.32;;;16.80;99.90;;;;;;5045693;28;20207;-68
2021/08/08 06:29:05;;;;;;;8.95;7.93;;;16.90;99.90;;;;;;5050263;28;20311;-72
2021/08/08 06:31:32;;;;;;;10.68;8.85;;;17.00;99.90;;;;;;5033016;28;20198;-70
2021/08/08 06:33:59;;;;;;;11.60;7.68;;;17.10;99.90;;;;;;5031017;28;20224;-72
2021/08/08 06:36:28;;;;;;;10.18;9.27;;;17.10;99.90;;;;;;5031139;28;20204;-74
2021/08/08 06:38:57;;;;;;;9.05;8.07;;;17.20;99.90;;;;;;5029059;28;20223;-73
2021/08/08 06:41:24;;;;;;;9.77;7.70;;;17.30;99.90;;;;;;5035525;28;20213;-73
2021/08/08 06:43:52;;;;;;;8.43;7.60;;;17.30;99.90;;;;;;5033032;28;20284;-68
2021/08/08 06:46:19;;;;;;;9.32;6.93;;;17.30;99.90;;;;;;5041666;28;20213;-72
2021/08/08 06:48:46;;;;;;;8.48;7.35;;;17.10;99.90;;;;;;5034365;28;20218;-72
2021/08/08 06:51:13;;;;;;;10.20;7.85;;;17.10;99.90;;;;;;5041851;28;20684;-71
2021/08/08 06:53:42;;;;;;;8.40;7.57;;;17.10;99.90;;;;;;5037162;28;20687;-69
2021/08/08 06:56:09;;;;;;;11.65;7.65;;;17.10;99.90;;;;;;5036093;28;20218;-70
2021/08/08 06:58:36;;;;;;;10.65;8.48;;;17.10;99.90;;;;;;5047194;28;20592;-74
2021/08/08 07:01:03;;;;;;;7.88;7.13;;;17.10;99.90;;;;;;5034891;28;20213;-74
2021/08/08 07:03:30;;;;;;;11.23;8.43;;;17.00;99.90;;;;;;5033877;28;20543;-71
2021/08/08 07:05:57;;;;;;;9.40;7.70;;;16.90;99.90;;;;;;5039140;28;20251;-72
2021/08/08 07:08:26;;;;;;;9.20;8.02;;;16.80;99.90;;;;;;5043449;28;20309;-69
2021/08/08 07:10:54;;;;;;;10.10;9.18;;;16.80;99.90;;;;;;5045064;28;20201;-68
2021/08/08 07:13:21;;;;;;;8.70;7.80;;;16.80;99.90;;;;;;5039126;28;20210;-72
2021/08/08 07:15:48;;;;;;;12.63;8.05;;;16.80;99.90;;;;;;5042118;28;20210;-71
2021/08/08 07:18:16;;;;;;;10.02;8.55;;;16.90;99.90;;;;;;5040776;28;20228;-72
2021/08/08 07:20:43;;;;;;;8.98;8.10;;;16.80;99.90;;;;;;5046443;28;20228;-73
2021/08/08 07:23:10;;;;;;;10.50;8.63;;;16.80;99.90;;;;;;5042675;28;20213;-73
2021/08/08 07:25:37;;;;;;;11.25;7.20;;;16.80;99.90;;;;;;5037328;28;20456;-69
2021/08/08 07:28:06;;;;;;;13.77;8.90;;;16.70;99.90;;;;;;5042676;28;20226;-70
2021/08/08 07:30:34;;;;;;;9.13;8.10;;;16.70;99.90;;;;;;5044912;28;20649;-72
2021/08/08 07:33:01;;;;;;;11.50;9.05;;;16.80;99.90;;;;;;5033649;28;20290;-71
2021/08/08 07:35:28;;;;;;;12.35;9.25;;;16.80;99.90;;;;;;5039384;28;20198;-72
2021/08/08 07:37:55;;;;;;;12.85;9.98;;;16.80;99.90;;;;;;5046883;28;20230;-71
2021/08/08 07:40:23;;;;;;;9.30;8.35;;;16.80;99.90;;;;;;5042111;28;20201;-73
2021/08/08 07:42:50;;;;;;;13.20;9.55;;;16.70;99.90;;;;;;5049767;28;20284;-72
2021/08/08 07:45:19;;;;;;;13.57;9.70;;;16.80;99.90;;;;;;5048180;28;20217;-70
2021/08/08 07:47:47;;;;;;;14.88;8.48;;;16.80;99.90;;;;;;5038164;28;20252;-71
2021/08/08 07:50:16;;;;;;;14.27;9.25;;;16.80;99.90;;;;;;5036419;28;20203;-72
2021/08/08 07:52:43;;;;;;;14.18;9.60;;;16.90;99.90;;;;;;5041767;28;20205;-71
2021/08/08 07:55:12;;;;;;;11.40;8.93;;;17.00;99.90;;;;;;5048233;28;20213;-73
2021/08/08 07:57:39;;;;;;;12.90;9.27;;;17.10;99.90;;;;;;5034046;28;20478;-70
2021/08/08 08:00:08;;;;;;;10.50;8.45;;;17.20;99.90;;;;;;5039982;28;20232;-72
2021/08/08 08:02:37;;;;;;;15.77;10.90;;;17.20;99.90;;;;;;5033486;28;20229;-70
2021/08/08 08:05:05;;;;;;;12.50;9.10;;;17.30;99.90;;;;;;5033400;28;20211;-70
2021/08/08 08:07:32;;;;;;;11.50;10.03;;;17.40;99.90;;;;;;5033956;28;20470;-72
2021/08/08 08:10:00;;;;;;;9.93;8.80;;;17.50;99.90;;;;;;5031168;28;20475;-72
2021/08/08 08:12:27;;;;;;;13.80;9.30;;;17.60;99.90;;;;;;5048209;28;20451;-74
2021/08/08 08:14:54;;;;;;;18.57;9.70;;;17.70;99.90;;;;;;5037228;28;20451;-73
2021/08/08 08:17:21;;;;;;;15.53;9.00;;;17.80;99.90;;;;;;5031390;28;20434;-70
2021/08/08 08:19:50;;;;;;;12.20;8.97;;;17.90;99.90;;;;;;5039812;28;20450;-71
2021/08/08 08:22:17;;;;;;;9.80;8.10;;;17.90;99.90;;;;;;5042810;28;20485;-71
2021/08/08 08:24:44;;;;;;;12.77;8.50;;;17.90;99.90;;;;;;5047583;28;20453;-72
2021/08/08 08:27:12;;;;;;;11.17;7.80;;;17.80;99.90;;;;;;5050600;28;20450;-71
2021/08/08 08:29:39;;;;;;;14.37;8.50;;;17.80;99.90;;;;;;5036608;28;20474;-73
2021/08/08 08:32:14;;;;;;;14.83;8.57;;;17.80;99.90;;;;;;5034924;28;20503;-72
2021/08/08 08:34:41;;;;;;;13.73;9.70;;;17.70;99.90;;;;;;5034751;28;20473;-69
2021/08/08 08:37:10;;;;;;;11.93;7.97;;;17.60;99.90;;;;;;5029333;28;20460;-73
2021/08/08 08:39:38;;;;;;;11.10;7.10;;;17.60;99.90;;;;;;5040462;28;20446;-71
2021/08/08 08:42:08;;;;;;;9.10;7.73;;;17.60;99.90;;;;;;5027670;28;20842;-69
2021/08/08 08:44:35;;;;;;;11.40;7.63;;;17.60;99.90;;;;;;5038467;28;20446;-73
2021/08/08 08:47:05;;;;;;;14.07;7.97;;;17.80;99.90;;;;;;5036565;28;20458;-73
2021/08/08 08:49:32;;;;;;;12.77;8.57;;;18.00;99.90;;;;;;5032175;28;20480;-73
2021/08/08 08:52:04;;;;;;;10.47;8.23;;;18.20;99.90;;;;;;5040950;28;20933;-72
2021/08/08 08:54:34;;;;;;;10.77;7.27;;;18.30;99.90;;;;;;5039613;28;21024;-75
2021/08/08 08:57:01;;;;;;;11.77;7.40;;;18.20;99.90;;;;;;5040915;28;20461;-73
2021/08/08 08:59:29;;;;;;;11.43;7.80;;;18.10;99.90;;;;;;5036134;28;20511;-70
2021/08/08 09:01:56;;;;;;;9.67;6.80;;;18.10;99.90;;;;;;5038612;28;20492;-71
2021/08/08 09:04:24;;;;;;;8.73;6.67;;;18.10;99.90;;;;;;5032733;28;20440;-74
2021/08/08 09:06:51;;;;;;;12.03;7.07;;;18.20;99.90;;;;;;5031137;28;20451;-74
2021/08/08 09:09:18;;;;;;;15.10;6.60;;;18.50;99.90;;;;;;5038848;28;20482;-73
2021/08/08 09:11:47;;;;;;;13.20;6.20;;;18.70;99.90;;;;;;5036382;28;20439;-74
2021/08/08 09:14:16;;;;;;;12.67;6.97;;;18.80;99.90;;;;;;5044251;28;20453;-69
2021/08/08 09:16:45;;;;;;;8.13;6.93;;;18.90;99.90;;;;;;5032456;28;20486;-75
2021/08/08 09:19:20;;;;;;;16.83;6.40;;;19.20;99.90;;;;;;5035994;28;20536;-75
2021/08/08 09:21:47;;;;;;;6.40;5.30;;;19.80;99.90;;;;;;5040202;28;20470;-72
2021/08/08 09:24:24;;;;;;;14.63;6.67;;;20.00;99.90;;;;;;5038286;28;20459;-73
2021/08/08 09:27:04;;;;;;;11.60;6.50;;;20.10;99.90;;;;;;5026556;28;20446;-75
2021/08/08 09:29:32;;;;;;;13.27;6.70;;;20.10;99.90;;;;;;5024760;28;21021;-73
2021/08/08 09:32:00;;;;;;;15.13;7.33;;;20.00;99.90;;;;;;5026126;28;20443;-73
2021/08/08 09:34:30;;;;;;;12.03;5.63;;;20.10;99.90;;;;;;5025320;28;20456;-71
2021/08/08 09:36:59;;;;;;;18.63;6.53;;;20.30;99.90;;;;;;5031772;28;20447;-74
2021/08/08 09:39:28;;;;;;;7.90;5.10;;;20.80;99.90;;;;;;5048715;28;20486;-71
2021/08/08 09:42:10;;;;;;;12.20;5.87;;;20.80;99.90;;;;;;5038334;28;20507;-73
2021/08/08 09:44:39;;;;;;;11.60;4.90;;;20.30;99.90;;;;;;5039147;28;20440;-73
2021/08/08 09:47:06;;;;;;;11.93;5.37;;;20.40;99.90;;;;;;5037152;28;20566;-74
2021/08/08 09:49:34;;;;;;;11.03;5.77;;;20.50;99.90;;;;;;5041783;28;20446;-71
2021/08/08 09:52:01;;;;;;;19.87;6.57;;;21.00;99.90;;;;;;5044718;28;20435;-74
2021/08/08 09:54:36;;;;;;;9.13;4.73;;;21.20;99.90;;;;;;5034722;28;20460;-72
2021/08/08 09:57:04;;;;;;;8.23;5.43;;;21.30;99.90;;;;;;5042783;28;20476;-71
2021/08/08 09:59:33;;;;;;;10.57;4.60;;;21.20;99.90;;;;;;5039187;28;20455;-72
2021/08/08 10:02:00;;;;;;;12.10;4.63;;;21.20;99.90;;;;;;5039800;28;20493;-72
2021/08/08 10:04:29;;;;;;;9.23;5.20;;;21.60;99.90;;;;;;5031603;28;20446;-70
2021/08/08 10:06:58;;;;;;;11.93;5.00;;;21.70;99.90;;;;;;5038307;28;20466;-70
2021/08/08 10:09:28;;;;;;;12.37;5.47;;;21.60;99.90;;;;;;5026486;28;20485;-71
2021/08/08 10:11:57;;;;;;;9.97;4.77;;;22.00;99.90;;;;;;5040437;28;20450;-73
2021/08/08 10:14:25;;;;;;;16.23;5.47;;;22.40;99.90;;;;;;5030934;28;20452;-74
2021/08/08 10:16:53;;;;;;;8.70;5.70;;;22.40;99.90;;;;;;5035058;28;20839;-70
2021/08/08 10:19:21;;;;;;;8.87;5.97;;;22.60;99.90;;;;;;5041747;28;20476;-75
2021/08/08 10:21:49;;;;;;;8.57;5.90;;;23.10;99.90;;;;;;5030828;28;20819;-73
2021/08/08 10:24:19;;;;;;;8.47;5.20;;;23.50;99.90;;;;;;5030957;28;20820;-74
2021/08/08 10:26:46;;;;;;;10.50;5.73;;;23.70;99.90;;;;;;5036200;28;20459;-69
2021/08/08 10:29:14;;;;;;;9.27;4.20;;;23.40;99.90;;;;;;5042787;28;20459;-73
2021/08/08 10:31:41;;;;;;;6.77;4.47;;;23.20;99.90;;;;;;5035774;28;20847;-71
2021/08/08 10:34:09;;;;;;;8.50;4.23;;;23.00;99.90;;;;;;5035823;28;20439;-70
2021/08/08 10:36:38;;;;;;;8.23;4.90;;;22.40;99.90;;;;;;5036986;28;20530;-73
2021/08/08 10:39:10;;;;;;;10.33;4.50;;;21.40;99.90;;;;;;5037377;28;20564;-75
2021/08/08 10:41:38;;;;;;;7.50;3.63;;;21.00;99.90;;;;;;5041951;28;20485;-71
2021/08/08 10:44:07;;;;;;;7.23;5.07;;;21.20;99.90;;;;;;5038506;28;20450;-72
2021/08/08 10:46:46;;;;;;;7.27;3.93;;;21.90;99.90;;;;;;5028469;28;20861;-73
2021/08/08 10:49:26;;;;;;;5.97;4.07;;;22.30;99.90;;;;;;5034695;28;20474;-71
2021/08/08 10:51:59;;;;;;;9.00;3.87;;;22.50;99.90;;;;;;5035162;28;20457;-72
2021/08/08 10:54:26;;;;;;;10.60;4.40;;;22.30;99.90;;;;;;5030156;28;20461;-74
2021/08/08 10:56:54;;;;;;;14.60;4.27;;;22.30;99.90;;;;;;5033300;28;20948;-74
2021/08/08 10:59:23;;;;;;;8.50;5.40;;;22.30;99.90;;;;;;5030547;28;20466;-73
2021/08/08 11:02:07;;;;;;;9.33;4.50;;;21.90;99.90;;;;;;5032797;28;20481;-73
2021/08/08 11:04:36;;;;;;;11.50;3.83;;;21.60;99.90;;;;;;5032854;28;20536;-71
2021/08/08 11:07:05;;;;;;;10.63;3.63;;;21.50;99.90;;;;;;5031806;28;20481;-73
2021/08/08 11:09:32;;;;;;;12.87;4.77;;;21.50;99.90;;;;;;5035288;28;20811;-74
2021/08/08 11:12:01;;;;;;;7.00;4.37;;;21.30;99.90;;;;;;5037380;28;20439;-72
2021/08/08 11:14:28;;;;;;;6.80;3.70;;;21.80;99.90;;;;;;5040347;28;20449;-71
2021/08/08 11:17:00;;;;;;;7.90;4.07;;;22.10;99.90;;;;;;5037301;28;20440;-71
2021/08/08 11:19:40;;;;;;;10.20;3.60;;;22.50;99.90;;;;;;5032448;28;20948;-72
2021/08/08 11:22:12;;;;;;;8.60;3.17;;;22.50;99.90;;;;;;5041742;28;20487;-71
2021/08/08 11:24:41;;;;;;;17.87;4.77;;;22.20;99.90;;;;;;5036940;28;20455;-72
2021/08/08 11:27:10;;;;;;;9.07;4.33;;;22.10;99.90;;;;;;5041032;28;20452;-73
2021/08/08 11:29:37;;;;;;;7.30;4.33;;;21.80;99.90;;;;;;5039805;28;20445;-73
2021/08/08 11:32:07;;;;;;;8.37;3.70;;;21.60;99.90;;;;;;5034150;28;20456;-71
2021/08/08 11:34:36;;;;;;;10.30;3.73;;;21.80;99.90;;;;;;5033280;28;20457;-73
2021/08/08 11:37:04;;;;;;;11.10;4.20;;;21.80;99.90;;;;;;5032712;28;20533;-74
2021/08/08 11:39:34;;;;;;;9.40;3.77;;;21.60;99.90;;;;;;5033719;28;20461;-73
2021/08/08 11:42:03;;;;;;;6.50;4.20;;;21.60;99.90;;;;;;5030921;28;20512;-71
2021/08/08 11:44:39;;;;;;;11.07;3.77;;;21.90;99.90;;;;;;5040169;28;20537;-71
2021/08/08 11:47:07;;;;;;;10.13;4.93;;;21.90;99.90;;;;;;5030497;28;20451;-72
2021/08/08 11:49:45;;;;;;;9.50;4.13;;;22.20;99.90;;;;;;5032977;28;20941;-71
2021/08/08 11:52:15;;;;;;;7.80;3.87;;;22.30;99.90;;;;;;5038803;28;20443;-69
2021/08/08 11:54:43;;;;;;;4.57;3.77;;;22.50;99.50;;;;;;5032058;28;20478;-72
2021/08/08 11:57:10;;;;;;;15.00;3.80;;;22.60;99.50;;;;;;5033001;28;20492;-72
2021/08/08 11:59:39;;;;;;;4.53;3.27;;;22.60;98.80;;;;;;5032392;28;20951;-71
2021/08/08 12:02:08;;;;;;;5.30;3.77;;;22.90;99.40;;;;;;5035670;28;20857;-71
2021/08/08 12:04:36;;;;;;;6.47;3.37;;;22.50;97.70;;;;;;5032569;28;20501;-73
2021/08/08 12:07:09;;;;;;;5.87;3.20;;;22.20;98.40;;;;;;5031717;28;21020;-73
2021/08/08 12:09:37;;;;;;;4.37;3.43;;;22.40;98.50;;;;;;5029058;28;20456;-71
2021/08/08 12:12:06;;;;;;;8.27;3.43;;;22.30;98.60;;;;;;5031876;28;20446;-70
2021/08/08 12:14:35;;;;;;;6.00;3.10;;;22.20;98.70;;;;;;5028653;28;20952;-70
2021/08/08 12:17:06;;;;;;;5.90;3.50;;;22.30;98.80;;;;;;5032195;28;20905;-70
2021/08/08 12:19:35;;;;;;;7.53;3.60;;;22.20;97.30;;;;;;5035156;28;20533;-72
2021/08/08 12:22:06;;;;;;;6.10;3.53;;;22.10;97.90;;;;;;5033234;28;20445;-70
2021/08/08 12:24:44;;;;;;;5.73;2.87;;;22.10;97.90;;;;;;5033820;28;20469;-69
2021/08/08 12:27:15;;;;;;;7.60;2.73;;;21.90;98.20;;;;;;5032581;28;20504;-70
2021/08/08 12:29:47;;;;;;;5.53;2.20;;;22.10;96.50;;;;;;5072639;23;20487;-82
2021/08/08 12:32:21;;;;;;;4.03;2.37;;;22.20;96.00;;;;;;5057136;28;20458;-81
2021/08/08 12:35:05;;;;;;;11.80;3.50;;;22.40;96.50;;;;;;5050719;28;20458;-82
2021/08/08 12:37:34;;;;;;;12.27;2.83;;;22.60;96.00;;;;;;5067926;28;20524;-82
2021/08/08 12:40:13;;;;;;;12.37;3.03;;;22.80;96.30;;;;;;5067632;28;20908;-83
2021/08/08 12:42:41;;;;;;;5.30;3.00;;;22.90;96.60;;;;;;5063179;28;20482;-79
2021/08/08 12:45:12;;;;;;;7.30;3.20;;;22.70;95.80;;;;;;5063055;28;20446;-81
2021/08/08 12:47:41;;;;;;;8.77;3.50;;;22.70;96.20;;;;;;5057252;28;20839;-80
2021/08/08 12:50:17;;;;;;;5.37;2.80;;;22.80;95.60;;;;;;5062296;28;20466;-80
2021/08/08 12:52:46;;;;;;;3.63;3.20;;;22.70;95.60;;;;;;5061337;28;20883;-81